createdAt,value
2023-01-09T00:00:46.039Z,88.74
2023-01-09T00:01:46.156Z,88.78
2023-01-09T00:02:45.965Z,88.74
2023-01-09T00:03:45.932Z,88.74
2023-01-09T00:04:45.876Z,88.64
2023-01-09T00:05:45.892Z,88.64
2023-01-09T00:06:45.862Z,88.64
2023-01-09T00:07:45.890Z,88.64
2023-01-09T00:08:45.827Z,88.64
2023-01-09T00:09:45.837Z,88.64
2023-01-09T00:10:45.826Z,88.64
2023-01-09T00:11:45.841Z,88.64
2023-01-09T00:12:45.810Z,88.64
2023-01-09T00:13:45.804Z,88.64
2023-01-09T00:14:45.769Z,88.74
2023-01-09T00:15:45.786Z,88.84
2023-01-09T00:16:45.816Z,88.84
2023-01-09T00:17:45.767Z,88.84
2023-01-09T00:18:45.736Z,88.84
2023-01-09T00:19:45.740Z,88.95
2023-01-09T00:20:45.707Z,88.95
2023-01-09T00:21:45.727Z,88.95
2023-01-09T00:22:45.668Z,88.84
2023-01-09T00:23:45.681Z,88.84
2023-01-09T00:24:45.677Z,88.95
2023-01-09T00:25:45.714Z,88.95
2023-01-09T00:26:45.651Z,89.04
2023-01-09T00:27:45.658Z,89.04
2023-01-09T00:28:45.597Z,89.15
2023-01-09T00:29:45.616Z,89.15
2023-01-09T00:30:45.644Z,89.25
2023-01-09T00:31:45.592Z,89.46
2023-01-09T00:32:45.567Z,89.56
2023-01-09T00:33:45.582Z,89.76
2023-01-09T00:34:45.542Z,89.76
2023-01-09T00:35:45.548Z,89.87
2023-01-09T00:36:45.536Z,90.08
2023-01-09T00:37:45.567Z,90.18
2023-01-09T00:38:45.495Z,90.28
2023-01-09T00:39:45.523Z,90.28
2023-01-09T00:40:45.483Z,90.38
2023-01-09T00:41:45.484Z,90.38
2023-01-09T00:42:45.452Z,90.38
2023-01-09T00:43:45.452Z,90.38
2023-01-09T00:44:45.432Z,90.48
2023-01-09T00:45:45.494Z,90.69
2023-01-09T00:46:45.420Z,90.80
2023-01-09T00:47:45.437Z,90.80
2023-01-09T00:48:45.383Z,90.89
2023-01-09T00:49:45.386Z,91.00
2023-01-09T00:50:45.359Z,91.00
2023-01-09T00:51:45.397Z,91.10
2023-01-09T00:52:45.355Z,91.20
2023-01-09T00:53:45.352Z,91.51
2023-01-09T00:54:45.310Z,91.61
2023-01-09T00:55:45.334Z,91.82
2023-01-09T00:56:45.289Z,92.23
2023-01-09T00:57:45.328Z,92.33
2023-01-09T00:58:45.274Z,92.33
2023-01-09T00:59:46.266Z,92.33
2023-01-09T01:00:45.243Z,92.33
2023-01-09T01:01:45.453Z,92.33
2023-01-09T01:02:45.291Z,92.33
2023-01-09T01:03:45.268Z,92.44
2023-01-09T01:04:45.211Z,92.44
2023-01-09T01:05:45.216Z,92.54
2023-01-09T01:06:45.216Z,92.74
2023-01-09T01:07:45.233Z,93.05
2023-01-09T01:08:45.161Z,93.16
2023-01-09T01:09:45.183Z,93.16
2023-01-09T01:10:45.154Z,93.05
2023-01-09T01:11:45.160Z,93.16
2023-01-09T01:12:45.157Z,93.36
2023-01-09T01:13:45.129Z,93.46
2023-01-09T01:14:45.159Z,93.57
2023-01-09T01:15:45.117Z,93.57
2023-01-09T01:16:45.250Z,93.57
2023-01-09T01:17:45.083Z,93.57
2023-01-09T01:18:45.055Z,93.82
2023-01-09T01:19:45.088Z,93.87
2023-01-09T01:20:45.127Z,94.12
2023-01-09T01:21:45.047Z,94.23
2023-01-09T01:22:45.000Z,94.12
2023-01-09T01:23:45.056Z,94.33
2023-01-09T01:24:44.986Z,94.43
2023-01-09T01:25:44.988Z,94.54
2023-01-09T01:26:44.962Z,94.54
2023-01-09T01:27:44.989Z,94.64
2023-01-09T01:28:44.965Z,94.64
2023-01-09T01:29:44.952Z,94.64
2023-01-09T01:30:44.944Z,94.74
2023-01-09T01:31:44.934Z,94.74
2023-01-09T01:32:44.891Z,94.74
2023-01-09T01:33:44.925Z,94.84
2023-01-09T01:34:46.927Z,94.84
2023-01-09T01:35:44.912Z,94.95
2023-01-09T01:36:44.839Z,94.95
2023-01-09T01:37:44.871Z,94.84
2023-01-09T01:38:44.836Z,94.84
2023-01-09T01:39:44.843Z,94.95
2023-01-09T01:40:44.834Z,94.95
2023-01-09T01:41:44.824Z,95.15
2023-01-09T01:42:44.818Z,94.95
2023-01-09T01:43:44.804Z,94.95
2023-01-09T01:44:44.781Z,95.15
2023-01-09T01:45:44.863Z,95.25
2023-01-09T01:46:44.742Z,95.25
2023-01-09T01:47:44.751Z,95.25
2023-01-09T01:48:44.718Z,95.25
2023-01-09T01:49:44.749Z,95.36
2023-01-09T01:50:44.708Z,95.46
2023-01-09T01:51:44.716Z,95.46
2023-01-09T01:52:44.701Z,95.56
2023-01-09T01:53:44.687Z,95.56
2023-01-09T01:54:44.655Z,95.67
2023-01-09T01:55:44.679Z,95.67
2023-01-09T01:56:44.632Z,95.67
2023-01-09T01:57:44.647Z,95.77
2023-01-09T01:58:44.629Z,95.87
2023-01-09T01:59:44.640Z,95.97
2023-01-09T02:00:44.599Z,95.97
2023-01-09T02:01:46.733Z,95.97
2023-01-09T02:02:44.652Z,96.08
2023-01-09T02:03:44.633Z,96.18
2023-01-09T02:04:44.540Z,96.18
2023-01-09T02:05:44.592Z,96.08
2023-01-09T02:06:44.546Z,96.08
2023-01-09T02:07:44.569Z,95.97
2023-01-09T02:08:44.552Z,96.08
2023-01-09T02:09:44.590Z,96.08
2023-01-09T02:10:44.530Z,96.08
2023-01-09T02:11:44.635Z,96.08
2023-01-09T02:12:44.532Z,96.18
2023-01-09T02:13:44.472Z,96.08
2023-01-09T02:14:44.571Z,96.08
2023-01-09T02:15:44.642Z,96.08
2023-01-09T02:16:44.480Z,96.18
2023-01-09T02:17:44.414Z,96.28
2023-01-09T02:18:44.395Z,96.28
2023-01-09T02:19:44.437Z,96.39
2023-01-09T02:20:44.370Z,96.39
2023-01-09T02:21:44.382Z,96.48
2023-01-09T02:22:44.346Z,96.48
2023-01-09T02:23:44.514Z,96.48
2023-01-09T02:24:44.323Z,96.48
2023-01-09T02:25:44.367Z,96.39
2023-01-09T02:26:44.322Z,96.48
2023-01-09T02:27:44.387Z,96.39
2023-01-09T02:28:44.303Z,96.39
2023-01-09T02:29:44.372Z,96.28
2023-01-09T02:30:44.256Z,96.28
2023-01-09T02:31:44.338Z,96.28
2023-01-09T02:32:44.231Z,96.39
2023-01-09T02:33:44.276Z,96.39
2023-01-09T02:34:44.219Z,96.39
2023-01-09T02:35:44.227Z,96.48
2023-01-09T02:36:44.218Z,96.48
2023-01-09T02:37:44.199Z,96.48
2023-01-09T02:38:45.127Z,96.48
2023-01-09T02:39:44.193Z,96.39
2023-01-09T02:40:44.169Z,96.48
2023-01-09T02:41:44.170Z,96.48
2023-01-09T02:42:44.128Z,96.48
2023-01-09T02:43:44.160Z,96.48
2023-01-09T02:44:44.129Z,96.48
2023-01-09T02:45:44.169Z,96.48
2023-01-09T02:46:44.099Z,96.48
2023-01-09T02:47:44.107Z,96.48
2023-01-09T02:48:44.091Z,96.39
2023-01-09T02:49:44.071Z,96.28
2023-01-09T02:50:44.116Z,95.87
2023-01-09T02:51:44.070Z,95.77
2023-01-09T02:52:44.024Z,95.36
2023-01-09T02:53:44.037Z,95.46
2023-01-09T02:54:44.021Z,94.84
2023-01-09T02:55:44.003Z,94.02
2023-01-09T02:56:43.995Z,94.12
2023-01-09T02:57:43.994Z,93.92
2023-01-09T02:58:44.005Z,94.02
2023-01-09T02:59:43.961Z,93.82
2023-01-09T03:00:43.958Z,93.92
2023-01-09T03:01:44.035Z,94.12
2023-01-09T03:02:43.959Z,94.02
2023-01-09T03:03:43.921Z,93.71
2023-01-09T03:04:43.876Z,93.71
2023-01-09T03:05:43.905Z,93.71
2023-01-09T03:06:43.889Z,93.71
2023-01-09T03:07:43.909Z,93.82
2023-01-09T03:08:43.847Z,93.82
2023-01-09T03:09:43.853Z,93.61
2023-01-09T03:10:43.826Z,93.40
2023-01-09T03:11:43.842Z,93.51
2023-01-09T03:12:43.880Z,93.61
2023-01-09T03:13:43.817Z,93.92
2023-01-09T03:14:43.780Z,94.02
2023-01-09T03:15:43.792Z,94.02
2023-01-09T03:16:43.756Z,94.12
2023-01-09T03:17:43.765Z,94.23
2023-01-09T03:18:43.744Z,94.02
2023-01-09T03:19:43.763Z,94.02
2023-01-09T03:20:43.803Z,93.92
2023-01-09T03:21:43.801Z,93.92
2023-01-09T03:22:43.763Z,93.92
2023-01-09T03:23:43.693Z,93.82
2023-01-09T03:24:43.690Z,93.82
2023-01-09T03:25:43.673Z,93.92
2023-01-09T03:26:43.688Z,93.82
2023-01-09T03:27:43.677Z,93.92
2023-01-09T03:28:43.628Z,93.92
2023-01-09T03:29:43.642Z,93.82
2023-01-09T03:30:43.608Z,93.92
2023-01-09T03:31:43.733Z,93.82
2023-01-09T03:32:43.579Z,93.82
2023-01-09T03:33:43.601Z,93.82
2023-01-09T03:34:43.550Z,93.61
2023-01-09T03:35:43.563Z,93.71
2023-01-09T03:36:43.527Z,93.61
2023-01-09T03:37:43.552Z,93.40
2023-01-09T03:38:43.534Z,93.30
2023-01-09T03:39:43.554Z,93.55
2023-01-09T03:40:43.490Z,93.14
2023-01-09T03:41:43.509Z,92.89
2023-01-09T03:42:43.469Z,92.27
2023-01-09T03:43:43.489Z,92.07
2023-01-09T03:44:43.446Z,92.27
2023-01-09T03:45:43.534Z,92.38
2023-01-09T03:46:43.494Z,92.38
2023-01-09T03:47:43.442Z,92.27
2023-01-09T03:48:43.434Z,92.27
2023-01-09T03:49:43.427Z,92.17
2023-01-09T03:50:43.408Z,92.17
2023-01-09T03:51:43.377Z,91.86
2023-01-09T03:52:43.377Z,91.66
2023-01-09T03:53:43.374Z,91.14
2023-01-09T03:54:43.358Z,91.14
2023-01-09T03:55:43.328Z,91.08
2023-01-09T03:56:43.330Z,91.08
2023-01-09T03:57:43.325Z,90.98
2023-01-09T03:58:43.336Z,90.88
2023-01-09T03:59:43.306Z,90.67
2023-01-09T04:00:43.300Z,90.26
2023-01-09T04:01:43.667Z,90.16
2023-01-09T04:02:43.329Z,90.26
2023-01-09T04:03:43.306Z,90.06
2023-01-09T04:04:43.262Z,90.06
2023-01-09T04:05:43.244Z,90.36
2023-01-09T04:06:43.232Z,90.36
2023-01-09T04:07:43.207Z,90.47
2023-01-09T04:08:43.196Z,90.57
2023-01-09T04:09:44.125Z,90.26
2023-01-09T04:10:43.183Z,90.26
2023-01-09T04:11:44.095Z,90.57
2023-01-09T04:12:43.718Z,90.36
2023-01-09T04:13:43.130Z,90.16
2023-01-09T04:14:43.164Z,89.85
2023-01-09T04:15:43.111Z,89.85
2023-01-09T04:16:43.244Z,89.54
2023-01-09T04:17:43.087Z,89.23
2023-01-09T04:18:43.120Z,89.44
2023-01-09T04:19:43.061Z,89.34
2023-01-09T04:20:43.105Z,89.34
2023-01-09T04:21:43.040Z,89.64
2023-01-09T04:22:43.057Z,89.64
2023-01-09T04:23:43.025Z,89.64
2023-01-09T04:24:43.041Z,89.23
2023-01-09T04:25:43.017Z,89.13
2023-01-09T04:26:43.013Z,89.23
2023-01-09T04:27:42.989Z,89.03
2023-01-09T04:28:42.998Z,89.13
2023-01-09T04:29:42.979Z,89.23
2023-01-09T04:30:42.984Z,89.23
2023-01-09T04:31:42.984Z,89.34
2023-01-09T04:32:42.995Z,89.34
2023-01-09T04:33:42.904Z,89.23
2023-01-09T04:34:42.926Z,89.23
2023-01-09T04:35:42.883Z,89.23
2023-01-09T04:36:42.916Z,89.03
2023-01-09T04:37:42.857Z,89.03
2023-01-09T04:38:42.896Z,89.13
2023-01-09T04:39:42.858Z,89.03
2023-01-09T04:40:42.850Z,88.92
2023-01-09T04:41:42.824Z,88.92
2023-01-09T04:42:42.879Z,88.92
2023-01-09T04:43:42.793Z,88.82
2023-01-09T04:44:42.820Z,88.82
2023-01-09T04:45:42.794Z,88.82
2023-01-09T04:46:42.797Z,88.72
2023-01-09T04:47:42.761Z,88.82
2023-01-09T04:48:42.778Z,88.82
2023-01-09T04:49:42.785Z,88.82
2023-01-09T04:50:42.777Z,88.82
2023-01-09T04:51:42.737Z,88.72
2023-01-09T04:52:42.725Z,88.62
2023-01-09T04:53:42.681Z,88.51
2023-01-09T04:54:42.707Z,88.31
2023-01-09T04:55:42.702Z,88.41
2023-01-09T04:56:43.624Z,88.20
2023-01-09T04:57:42.636Z,88.51
2023-01-09T04:58:43.641Z,88.51
2023-01-09T04:59:42.613Z,88.62
2023-01-09T05:00:42.642Z,88.76
2023-01-09T05:01:42.689Z,88.66
2023-01-09T05:02:42.627Z,88.76
2023-01-09T05:03:42.579Z,88.86
2023-01-09T05:04:42.593Z,88.96
2023-01-09T05:05:42.575Z,88.86
2023-01-09T05:06:42.575Z,88.14
2023-01-09T05:07:42.533Z,87.73
2023-01-09T05:08:42.545Z,87.52
2023-01-09T05:09:42.518Z,87.63
2023-01-09T05:10:42.527Z,88.14
2023-01-09T05:11:42.499Z,87.84
2023-01-09T05:12:42.509Z,87.73
2023-01-09T05:13:42.475Z,87.22
2023-01-09T05:14:42.489Z,86.80
2023-01-09T05:15:42.441Z,86.91
2023-01-09T05:16:42.520Z,86.91
2023-01-09T05:17:42.421Z,86.91
2023-01-09T05:18:42.450Z,87.05
2023-01-09T05:19:42.403Z,87.12
2023-01-09T05:20:42.439Z,87.12
2023-01-09T05:21:42.387Z,87.15
2023-01-09T05:22:42.421Z,87.12
2023-01-09T05:23:42.439Z,87.05
2023-01-09T05:24:42.400Z,86.74
2023-01-09T05:25:42.331Z,86.85
2023-01-09T05:26:42.343Z,86.95
2023-01-09T05:27:42.307Z,87.36
2023-01-09T05:28:42.346Z,87.57
2023-01-09T05:29:42.298Z,87.77
2023-01-09T05:30:42.302Z,87.46
2023-01-09T05:31:42.317Z,87.67
2023-01-09T05:32:42.278Z,87.77
2023-01-09T05:33:42.255Z,87.87
2023-01-09T05:34:42.287Z,88.29
2023-01-09T05:35:42.252Z,88.59
2023-01-09T05:36:42.329Z,88.59
2023-01-09T05:37:42.202Z,88.39
2023-01-09T05:38:42.222Z,88.29
2023-01-09T05:39:42.181Z,88.70
2023-01-09T05:40:42.206Z,88.90
2023-01-09T05:41:42.170Z,89.01
2023-01-09T05:42:42.164Z,89.01
2023-01-09T05:43:42.143Z,88.80
2023-01-09T05:44:42.144Z,88.84
2023-01-09T05:45:42.180Z,88.02
2023-01-09T05:46:42.132Z,87.92
2023-01-09T05:47:42.109Z,87.92
2023-01-09T05:48:42.104Z,87.71
2023-01-09T05:49:42.067Z,87.40
2023-01-09T05:50:42.095Z,87.09
2023-01-09T05:51:42.052Z,87.09
2023-01-09T05:52:42.061Z,87.19
2023-01-09T05:53:42.032Z,86.99
2023-01-09T05:54:42.043Z,86.79
2023-01-09T05:55:42.008Z,86.88
2023-01-09T05:56:42.973Z,86.88
2023-01-09T05:57:41.999Z,87.09
2023-01-09T05:58:41.997Z,87.51
2023-01-09T05:59:41.985Z,87.51
2023-01-09T06:00:41.978Z,87.19
2023-01-09T06:01:42.972Z,87.30
2023-01-09T06:02:42.206Z,87.19
2023-01-09T06:03:41.949Z,86.68
2023-01-09T06:04:41.949Z,86.79
2023-01-09T06:05:41.918Z,86.88
2023-01-09T06:06:41.915Z,87.19
2023-01-09T06:07:41.894Z,87.51
2023-01-09T06:08:41.903Z,87.30
2023-01-09T06:09:41.851Z,87.51
2023-01-09T06:10:41.871Z,87.40
2023-01-09T06:11:41.831Z,87.60
2023-01-09T06:12:41.841Z,88.02
2023-01-09T06:13:41.806Z,87.96
2023-01-09T06:14:41.841Z,87.96
2023-01-09T06:15:41.892Z,87.96
2023-01-09T06:16:41.883Z,88.26
2023-01-09T06:17:41.756Z,88.37
2023-01-09T06:18:42.749Z,88.37
2023-01-09T06:19:41.734Z,88.47
2023-01-09T06:20:41.761Z,88.37
2023-01-09T06:21:41.725Z,88.37
2023-01-09T06:22:41.737Z,88.37
2023-01-09T06:23:42.741Z,88.26
2023-01-09T06:24:41.729Z,88.26
2023-01-09T06:25:41.672Z,88.68
2023-01-09T06:26:41.682Z,88.99
2023-01-09T06:27:41.663Z,89.34
2023-01-09T06:28:43.368Z,89.61
2023-01-09T06:29:41.653Z,89.50
2023-01-09T06:30:41.640Z,89.50
2023-01-09T06:31:41.609Z,89.91
2023-01-09T06:32:41.624Z,90.33
2023-01-09T06:33:41.585Z,90.33
2023-01-09T06:34:41.651Z,90.33
2023-01-09T06:35:41.569Z,90.33
2023-01-09T06:36:41.597Z,90.22
2023-01-09T06:37:41.549Z,90.22
2023-01-09T06:38:41.575Z,90.22
2023-01-09T06:39:41.521Z,90.12
2023-01-09T06:40:41.536Z,90.12
2023-01-09T06:41:41.498Z,90.12
2023-01-09T06:42:41.506Z,90.01
2023-01-09T06:43:41.473Z,90.01
2023-01-09T06:44:41.513Z,89.81
2023-01-09T06:45:41.473Z,89.71
2023-01-09T06:46:41.487Z,89.61
2023-01-09T06:47:41.428Z,89.50
2023-01-09T06:48:41.469Z,89.40
2023-01-09T06:49:41.411Z,89.09
2023-01-09T06:50:41.452Z,88.89
2023-01-09T06:51:41.396Z,88.78
2023-01-09T06:52:41.394Z,88.78
2023-01-09T06:53:41.382Z,88.78
2023-01-09T06:54:41.373Z,88.89
2023-01-09T06:55:41.351Z,88.78
2023-01-09T06:56:41.379Z,88.68
2023-01-09T06:57:41.332Z,88.20
2023-01-09T06:58:41.331Z,87.99
2023-01-09T06:59:42.122Z,87.90
2023-01-09T07:00:41.327Z,88.10
2023-01-09T07:01:41.373Z,88.20
2023-01-09T07:02:41.287Z,88.41
2023-01-09T07:03:41.280Z,88.51
2023-01-09T07:04:41.302Z,88.62
2023-01-09T07:05:41.242Z,88.72
2023-01-09T07:06:41.271Z,88.31
2023-01-09T07:07:41.241Z,88.62
2023-01-09T07:08:41.231Z,88.56
2023-01-09T07:09:41.196Z,88.45
2023-01-09T07:10:41.208Z,88.86
2023-01-09T07:11:41.174Z,88.86
2023-01-09T07:12:41.183Z,88.56
2023-01-09T07:13:41.146Z,88.35
2023-01-09T07:14:41.162Z,88.35
2023-01-09T07:15:41.180Z,88.24
2023-01-09T07:16:41.149Z,88.14
2023-01-09T07:17:41.110Z,88.24
2023-01-09T07:18:41.128Z,88.24
2023-01-09T07:19:41.086Z,88.04
2023-01-09T07:20:41.102Z,88.04
2023-01-09T07:21:41.077Z,88.04
2023-01-09T07:22:41.093Z,88.18
2023-01-09T07:23:41.041Z,88.39
2023-01-09T07:24:41.041Z,88.29
2023-01-09T07:25:41.030Z,88.04
2023-01-09T07:26:43.243Z,87.93
2023-01-09T07:27:41.953Z,87.66
2023-01-09T07:28:41.016Z,87.77
2023-01-09T07:29:40.996Z,87.77
2023-01-09T07:30:40.986Z,87.66
2023-01-09T07:31:41.077Z,87.87
2023-01-09T07:32:40.954Z,87.98
2023-01-09T07:33:40.920Z,87.87
2023-01-09T07:34:40.955Z,87.66
2023-01-09T07:35:40.927Z,87.66
2023-01-09T07:36:40.921Z,87.66
2023-01-09T07:37:40.881Z,87.77
2023-01-09T07:38:40.905Z,87.81
2023-01-09T07:39:40.891Z,87.81
2023-01-09T07:40:40.900Z,87.92
2023-01-09T07:41:40.858Z,87.92
2023-01-09T07:42:40.853Z,88.02
2023-01-09T07:43:40.859Z,88.02
2023-01-09T07:44:40.851Z,88.12
2023-01-09T07:45:40.837Z,88.22
2023-01-09T07:46:40.825Z,88.32
2023-01-09T07:47:40.784Z,88.22
2023-01-09T07:48:40.803Z,87.92
2023-01-09T07:49:40.759Z,87.92
2023-01-09T07:50:40.825Z,87.92
2023-01-09T07:51:40.731Z,88.02
2023-01-09T07:52:40.747Z,87.92
2023-01-09T07:53:40.717Z,87.71
2023-01-09T07:54:40.751Z,87.81
2023-01-09T07:55:40.692Z,87.66
2023-01-09T07:56:40.707Z,86.94
2023-01-09T07:57:40.669Z,86.68
2023-01-09T07:58:40.693Z,86.74
2023-01-09T07:59:40.672Z,86.43
2023-01-09T08:00:40.717Z,86.22
2023-01-09T08:01:40.805Z,85.91
2023-01-09T08:02:40.713Z,85.91
2023-01-09T08:03:40.629Z,85.91
2023-01-09T08:04:40.607Z,86.12
2023-01-09T08:05:40.626Z,86.22
2023-01-09T08:06:40.569Z,85.87
2023-01-09T08:07:40.591Z,85.77
2023-01-09T08:08:40.561Z,86.08
2023-01-09T08:09:40.557Z,86.18
2023-01-09T08:10:40.562Z,85.77
2023-01-09T08:11:40.549Z,85.46
2023-01-09T08:12:40.538Z,85.57
2023-01-09T08:13:40.520Z,85.87
2023-01-09T08:14:40.491Z,85.97
2023-01-09T08:15:40.633Z,85.25
2023-01-09T08:16:40.467Z,85.15
2023-01-09T08:17:40.479Z,85.42
2023-01-09T08:18:40.448Z,85.31
2023-01-09T08:19:40.488Z,85.31
2023-01-09T08:20:40.447Z,85.52
2023-01-09T08:21:40.437Z,84.91
2023-01-09T08:22:40.412Z,84.39
2023-01-09T08:23:40.420Z,84.91
2023-01-09T08:24:40.387Z,84.19
2023-01-09T08:25:40.378Z,84.19
2023-01-09T08:26:40.389Z,84.80
2023-01-09T08:27:40.382Z,84.70
2023-01-09T08:28:40.357Z,84.39
2023-01-09T08:29:40.361Z,84.08
2023-01-09T08:30:41.260Z,83.67
2023-01-09T08:31:40.399Z,83.67
2023-01-09T08:32:40.334Z,83.56
2023-01-09T08:33:40.646Z,83.36
2023-01-09T08:34:40.282Z,83.26
2023-01-09T08:35:40.306Z,83.26
2023-01-09T08:36:40.266Z,83.36
2023-01-09T08:37:40.272Z,83.47
2023-01-09T08:38:40.248Z,83.56
2023-01-09T08:39:40.238Z,83.26
2023-01-09T08:40:40.207Z,82.95
2023-01-09T08:41:40.212Z,82.95
2023-01-09T08:42:40.204Z,82.95
2023-01-09T08:43:40.202Z,83.05
2023-01-09T08:44:40.164Z,83.47
2023-01-09T08:45:40.190Z,83.47
2023-01-09T08:46:40.192Z,83.15
2023-01-09T08:47:40.169Z,82.84
2023-01-09T08:48:40.106Z,82.84
2023-01-09T08:49:40.118Z,82.74
2023-01-09T08:50:40.089Z,82.74
2023-01-09T08:51:40.109Z,83.05
2023-01-09T08:52:40.078Z,83.05
2023-01-09T08:53:40.071Z,82.50
2023-01-09T08:54:40.044Z,81.98
2023-01-09T08:55:40.060Z,82.19
2023-01-09T08:56:40.026Z,82.09
2023-01-09T08:57:40.048Z,82.40
2023-01-09T08:58:40.001Z,82.40
2023-01-09T08:59:40.021Z,82.50
2023-01-09T09:00:40.002Z,82.50
2023-01-09T09:01:40.030Z,81.88
2023-01-09T09:02:40.000Z,82.19
2023-01-09T09:03:39.982Z,82.50
2023-01-09T09:04:39.953Z,82.40
2023-01-09T09:05:39.943Z,82.19
2023-01-09T09:06:39.933Z,82.29
2023-01-09T09:07:39.936Z,82.29
2023-01-09T09:08:39.934Z,82.50
2023-01-09T09:09:39.919Z,82.40
2023-01-09T09:10:39.897Z,82.40
2023-01-09T09:11:39.890Z,82.60
2023-01-09T09:12:39.848Z,83.01
2023-01-09T09:13:39.872Z,82.91
2023-01-09T09:14:39.834Z,82.81
2023-01-09T09:15:39.912Z,82.19
2023-01-09T09:16:39.816Z,82.29
2023-01-09T09:17:39.835Z,82.50
2023-01-09T09:18:39.807Z,82.50
2023-01-09T09:19:39.797Z,82.46
2023-01-09T09:20:39.767Z,82.35
2023-01-09T09:21:39.779Z,82.35
2023-01-09T09:22:39.762Z,82.35
2023-01-09T09:23:39.777Z,82.67
2023-01-09T09:24:39.717Z,82.46
2023-01-09T09:25:39.732Z,82.67
2023-01-09T09:26:39.705Z,82.46
2023-01-09T09:27:39.708Z,82.32
2023-01-09T09:28:39.681Z,82.15
2023-01-09T09:29:39.680Z,82.35
2023-01-09T09:30:39.673Z,82.15
2023-01-09T09:31:39.744Z,82.15
2023-01-09T09:32:39.628Z,82.42
2023-01-09T09:33:39.683Z,82.35
2023-01-09T09:34:39.628Z,82.15
2023-01-09T09:35:39.627Z,82.05
2023-01-09T09:36:39.681Z,81.95
2023-01-09T09:37:39.613Z,81.74
2023-01-09T09:38:39.577Z,82.01
2023-01-09T09:39:39.586Z,82.05
2023-01-09T09:40:39.569Z,82.05
2023-01-09T09:41:39.559Z,82.15
2023-01-09T09:42:39.528Z,81.84
2023-01-09T09:43:39.533Z,81.91
2023-01-09T09:44:40.610Z,82.01
2023-01-09T09:45:39.537Z,81.91
2023-01-09T09:46:39.563Z,82.05
2023-01-09T09:47:39.496Z,81.53
2023-01-09T09:48:39.490Z,81.95
2023-01-09T09:49:39.473Z,82.25
2023-01-09T09:50:39.434Z,82.46
2023-01-09T09:51:39.446Z,82.15
2023-01-09T09:52:39.409Z,81.95
2023-01-09T09:53:39.438Z,81.84
2023-01-09T09:54:39.408Z,81.63
2023-01-09T09:55:40.340Z,81.70
2023-01-09T09:56:39.380Z,82.01
2023-01-09T09:57:39.380Z,82.01
2023-01-09T09:58:39.361Z,81.91
2023-01-09T09:59:39.365Z,81.60
2023-01-09T10:00:39.332Z,81.60
2023-01-09T10:01:39.370Z,81.29
2023-01-09T10:02:39.331Z,81.39
2023-01-09T10:03:39.380Z,81.39
2023-01-09T10:04:39.288Z,81.49
2023-01-09T10:05:39.298Z,81.60
2023-01-09T10:06:39.253Z,81.60
2023-01-09T10:07:40.551Z,81.60
2023-01-09T10:08:39.257Z,82.11
2023-01-09T10:09:39.240Z,81.81
2023-01-09T10:10:39.220Z,81.60
2023-01-09T10:11:39.221Z,81.39
2023-01-09T10:12:39.205Z,81.70
2023-01-09T10:13:39.228Z,81.46
2023-01-09T10:14:39.172Z,81.15
2023-01-09T10:15:39.237Z,81.46
2023-01-09T10:16:39.171Z,81.60
2023-01-09T10:17:39.165Z,81.46
2023-01-09T10:18:39.130Z,81.46
2023-01-09T10:19:39.135Z,81.35
2023-01-09T10:20:39.104Z,81.05
2023-01-09T10:21:39.142Z,80.94
2023-01-09T10:22:39.098Z,80.94
2023-01-09T10:23:39.089Z,81.29
2023-01-09T10:24:39.058Z,81.19
2023-01-09T10:25:39.073Z,81.25
2023-01-09T10:26:39.038Z,81.19
2023-01-09T10:27:39.054Z,81.39
2023-01-09T10:28:39.021Z,81.70
2023-01-09T10:29:41.473Z,81.29
2023-01-09T10:30:38.990Z,81.46
2023-01-09T10:31:39.058Z,81.25
2023-01-09T10:32:38.991Z,80.94
2023-01-09T10:33:38.986Z,81.05
2023-01-09T10:34:39.888Z,80.94
2023-01-09T10:35:47.311Z,80.94
2023-01-09T10:36:39.983Z,80.70
2023-01-09T10:37:38.946Z,81.15
2023-01-09T10:38:38.929Z,81.35
2023-01-09T10:39:38.933Z,81.11
2023-01-09T10:40:38.882Z,81.01
2023-01-09T10:41:38.885Z,80.63
2023-01-09T10:42:39.805Z,81.15
2023-01-09T10:43:38.919Z,81.05
2023-01-09T10:44:38.840Z,80.80
2023-01-09T10:45:38.858Z,80.43
2023-01-09T10:46:38.886Z,80.60
2023-01-09T10:47:38.857Z,81.01
2023-01-09T10:48:38.815Z,80.39
2023-01-09T10:49:38.823Z,80.39
2023-01-09T10:50:38.774Z,80.49
2023-01-09T10:51:38.804Z,81.52
2023-01-09T10:52:38.746Z,81.52
2023-01-09T10:53:38.787Z,80.70
2023-01-09T10:54:38.739Z,80.80
2023-01-09T10:55:38.764Z,80.80
2023-01-09T10:56:38.703Z,80.80
2023-01-09T10:57:38.713Z,80.77
2023-01-09T10:58:38.684Z,80.15
2023-01-09T10:59:38.726Z,80.29
2023-01-09T11:00:38.666Z,80.46
2023-01-09T11:01:38.731Z,80.25
2023-01-09T11:02:38.739Z,80.15
2023-01-09T11:03:38.730Z,80.05
2023-01-09T11:04:38.612Z,79.74
2023-01-09T11:05:38.663Z,79.84
2023-01-09T11:06:38.586Z,79.94
2023-01-09T11:07:38.642Z,79.94
2023-01-09T11:08:38.578Z,79.53
2023-01-09T11:09:38.589Z,79.84
2023-01-09T11:10:38.546Z,79.94
2023-01-09T11:11:38.557Z,79.84
2023-01-09T11:12:38.550Z,79.94
2023-01-09T11:13:38.562Z,80.35
2023-01-09T11:14:38.596Z,80.15
2023-01-09T11:15:38.519Z,79.19
2023-01-09T11:16:38.468Z,79.29
2023-01-09T11:17:38.511Z,79.29
2023-01-09T11:18:38.464Z,79.49
2023-01-09T11:19:38.490Z,79.19
2023-01-09T11:20:38.440Z,78.74
2023-01-09T11:21:38.460Z,78.74
2023-01-09T11:22:38.420Z,78.43
2023-01-09T11:23:38.467Z,78.74
2023-01-09T11:24:38.403Z,78.53
2023-01-09T11:25:38.420Z,78.64
2023-01-09T11:26:38.377Z,78.53
2023-01-09T11:27:38.381Z,78.29
2023-01-09T11:28:38.366Z,78.39
2023-01-09T11:29:38.376Z,78.19
2023-01-09T11:30:38.353Z,78.29
2023-01-09T11:31:38.380Z,78.19
2023-01-09T11:32:38.310Z,77.98
2023-01-09T11:33:38.340Z,77.78
2023-01-09T11:34:38.303Z,77.71
2023-01-09T11:35:39.266Z,78.02
2023-01-09T11:36:38.282Z,77.98
2023-01-09T11:37:38.293Z,77.81
2023-01-09T11:38:38.243Z,77.92
2023-01-09T11:39:38.252Z,78.09
2023-01-09T11:40:38.231Z,78.29
2023-01-09T11:41:38.232Z,78.39
2023-01-09T11:42:38.205Z,78.39
2023-01-09T11:43:38.250Z,78.29
2023-01-09T11:44:38.219Z,77.98
2023-01-09T11:45:38.195Z,77.47
2023-01-09T11:46:38.254Z,77.37
2023-01-09T11:47:38.184Z,77.58
2023-01-09T11:48:38.142Z,77.78
2023-01-09T11:49:38.141Z,77.68
2023-01-09T11:50:38.125Z,77.58
2023-01-09T11:51:38.125Z,77.47
2023-01-09T11:52:38.084Z,77.58
2023-01-09T11:53:38.109Z,77.58
2023-01-09T11:54:38.075Z,77.58
2023-01-09T11:55:42.431Z,77.58
2023-01-09T11:56:38.042Z,77.58
2023-01-09T11:57:38.070Z,77.06
2023-01-09T11:58:38.012Z,76.96
2023-01-09T11:59:38.052Z,76.86
2023-01-09T12:00:38.006Z,76.86
2023-01-09T12:01:38.047Z,77.06
2023-01-09T12:02:38.007Z,77.37
2023-01-09T12:03:37.999Z,77.47
2023-01-09T12:04:37.974Z,76.96
2023-01-09T12:05:37.984Z,76.75
2023-01-09T12:06:37.933Z,76.96
2023-01-09T12:07:37.969Z,77.17
2023-01-09T12:08:37.912Z,76.75
2023-01-09T12:09:37.931Z,76.96
2023-01-09T12:10:37.910Z,77.17
2023-01-09T12:11:37.921Z,77.26
2023-01-09T12:12:37.861Z,77.30
2023-01-09T12:13:37.864Z,77.47
2023-01-09T12:14:37.842Z,77.71
2023-01-09T12:15:37.894Z,77.51
2023-01-09T12:16:37.899Z,77.40
2023-01-09T12:17:37.815Z,77.61
2023-01-09T12:18:39.259Z,77.58
2023-01-09T12:19:37.814Z,77.58
2023-01-09T12:20:37.826Z,77.58
2023-01-09T12:21:37.832Z,77.71
2023-01-09T12:22:37.793Z,78.02
2023-01-09T12:23:37.751Z,78.02
2023-01-09T12:24:37.772Z,77.92
2023-01-09T12:25:37.758Z,77.71
2023-01-09T12:26:37.759Z,78.12
2023-01-09T12:27:37.709Z,77.81
2023-01-09T12:28:37.719Z,77.92
2023-01-09T12:29:37.676Z,78.33
2023-01-09T12:30:37.690Z,78.78
2023-01-09T12:31:37.807Z,79.15
2023-01-09T12:32:37.672Z,79.15
2023-01-09T12:33:37.655Z,78.98
2023-01-09T12:34:37.640Z,79.08
2023-01-09T12:35:38.598Z,78.88
2023-01-09T12:36:37.701Z,78.94
2023-01-09T12:37:37.591Z,78.94
2023-01-09T12:38:37.596Z,79.05
2023-01-09T12:39:37.564Z,79.46
2023-01-09T12:40:38.541Z,79.46
2023-01-09T12:41:37.573Z,79.87
2023-01-09T12:42:37.591Z,80.04
2023-01-09T12:43:37.516Z,80.24
2023-01-09T12:44:37.533Z,80.45
2023-01-09T12:45:37.558Z,80.31
2023-01-09T12:46:37.520Z,80.00
2023-01-09T12:47:37.492Z,79.28
2023-01-09T12:48:37.523Z,78.87
2023-01-09T12:49:37.474Z,78.36
2023-01-09T12:50:37.487Z,78.32
2023-01-09T12:51:37.470Z,78.16
2023-01-09T12:52:37.465Z,77.74